Time;durP1;ratioP1;P1;durP2;ratioP2;P2;SDS_P1;SDS_P2;PMS_P1;PMS_P2;Temp;Humidity;BMP_temperature;BMP_pressure;BME280_temperature;BME280_humidity;BME280_pressure;Samples;Min_cycle;Max_cycle;Signal;HPM_P1;HPM_P2
2022/02/16 00:01:44;;;;;;;1.70;1.60;;;;;;;5.63;92.22;99187.91;5055585;28;20594;-80
2022/02/16 00:04:11;;;;;;;1.63;1.40;;;;;;;5.68;92.10;99197.28;5056033;28;20228;-80
2022/02/16 00:06:38;;;;;;;3.00;1.70;;;;;;;5.56;91.89;99180.25;5055517;28;20205;-80
2022/02/16 00:09:04;;;;;;;2.03;1.40;;;;;;;5.64;91.77;99184.44;5038765;28;20235;-79
2022/02/16 00:11:31;;;;;;;1.57;1.43;;;;;;;5.61;92.17;99187.97;5035322;28;20205;-79
2022/02/16 00:13:57;;;;;;;1.50;1.40;;;;;;;5.54;92.09;99184.63;5035652;28;20259;-80
2022/02/16 00:16:25;;;;;;;1.63;1.30;;;;;;;5.53;92.77;99171.69;5035640;28;20213;-80
2022/02/16 00:18:52;;;;;;;2.17;1.37;;;;;;;5.47;92.90;99164.06;5035586;28;20748;-80
2022/02/16 00:21:18;;;;;;;2.23;1.33;;;;;;;5.53;93.18;99163.94;5035502;28;20284;-80
2022/02/16 00:23:44;;;;;;;2.63;1.53;;;;;;;5.62;93.30;99158.59;5035881;28;20233;-81
2022/02/16 00:26:11;;;;;;;1.43;1.30;;;;;;;5.67;92.52;99161.06;5036401;28;20262;-79
2022/02/16 00:28:37;;;;;;;4.00;1.77;;;;;;;5.64;93.10;99168.91;5035884;28;20234;-81
2022/02/16 00:31:05;;;;;;;2.33;1.60;;;;;;;5.69;92.88;99151.53;5043825;28;20214;-79
2022/02/16 00:33:32;;;;;;;1.77;1.10;;;;;;;5.69;92.76;99170.53;5058100;28;20195;-80
2022/02/16 00:35:59;;;;;;;1.90;1.43;;;;;;;5.74;92.29;99181.66;5055819;28;20209;-79
2022/02/16 00:38:25;;;;;;;1.00;1.00;;;;;;;5.64;92.27;99174.94;5048487;28;20237;-79
2022/02/16 00:40:51;;;;;;;1.80;1.20;;;;;;;5.65;92.02;99184.44;5035007;28;20209;-79
2022/02/16 00:43:18;;;;;;;1.03;1.00;;;;;;;5.66;93.07;99155.06;5034714;28;20644;-79
2022/02/16 00:45:44;;;;;;;1.87;1.30;;;;;;;5.68;92.71;99150.69;5034599;28;20574;-79
2022/02/16 00:48:11;;;;;;;3.47;1.50;;;;;;;5.79;92.80;99153.09;5032754;28;20275;-78
2022/02/16 00:50:39;;;;;;;1.47;1.33;;;;;;;5.83;92.41;99164.22;5033560;28;20212;-78
2022/02/16 00:53:05;;;;;;;1.30;1.20;;;;;;;5.82;92.09;99170.28;5034051;28;20201;-78
2022/02/16 00:55:32;;;;;;;1.90;1.30;;;;;;;5.85;92.48;99176.28;5034561;28;20263;-79
2022/02/16 00:57:58;;;;;;;2.07;1.20;;;;;;;5.89;92.74;99162.38;5034203;28;20279;-79
2022/02/16 01:00:25;;;;;;;1.20;1.10;;;;;;;5.91;92.12;99178.72;5033968;28;20206;-78
2022/02/16 01:02:51;;;;;;;4.17;1.20;;;;;;;5.87;92.25;99161.56;5033420;28;20279;-79
2022/02/16 01:05:17;;;;;;;1.50;0.93;;;;;;;5.89;92.72;99152.00;5034413;28;20206;-77
2022/02/16 01:07:45;;;;;;;1.37;1.27;;;;;;;5.88;92.95;99159.81;5035279;28;20234;-79
2022/02/16 01:10:12;;;;;;;1.47;1.00;;;;;;;5.86;92.42;99165.00;5033826;28;20202;-78
2022/02/16 01:12:38;;;;;;;0.93;0.90;;;;;;;5.76;93.33;99151.41;5034308;28;20285;-79
2022/02/16 01:15:06;;;;;;;2.30;1.20;;;;;;;5.83;93.53;99121.06;5034583;28;20232;-79
2022/02/16 01:17:32;;;;;;;1.63;0.90;;;;;;;5.75;92.88;99139.34;5033885;28;20256;-78
2022/02/16 01:19:58;;;;;;;1.93;1.10;;;;;;;5.81;93.42;99140.97;5033338;28;20256;-78
2022/02/16 01:22:26;;;;;;;1.03;0.90;;;;;;;5.77;93.59;99129.81;5033037;28;20630;-79
2022/02/16 01:24:54;;;;;;;1.17;1.07;;;;;;;5.76;93.24;99135.00;5034528;28;20574;-79
2022/02/16 01:27:20;;;;;;;1.13;0.97;;;;;;;5.71;93.67;99121.34;5035219;28;20205;-80
2022/02/16 01:29:50;;;;;;;1.63;1.00;;;;;;;5.74;94.35;99098.78;5034292;28;20210;-81
2022/02/16 01:32:16;;;;;;;1.20;1.10;;;;;;;5.80;93.63;99113.34;5033837;28;20272;-81
2022/02/16 01:34:43;;;;;;;1.40;1.20;;;;;;;5.79;93.85;99103.91;5034352;28;20212;-79
2022/02/16 01:37:10;;;;;;;1.47;1.07;;;;;;;5.76;93.68;99112.56;5034297;28;20263;-80
2022/02/16 01:39:36;;;;;;;1.40;1.00;;;;;;;5.78;92.84;99107.34;5032605;28;20712;-79
2022/02/16 01:42:04;;;;;;;1.17;0.90;;;;;;;5.85;92.90;99098.59;5034437;28;20210;-78
2022/02/16 01:44:31;;;;;;;0.93;0.90;;;;;;;5.93;93.12;99103.59;5033788;28;20234;-79
2022/02/16 01:47:01;;;;;;;2.10;1.20;;;;;;;5.95;92.44;99110.47;5034073;28;20698;-80
2022/02/16 01:49:28;;;;;;;1.00;0.90;;;;;;;5.93;92.82;99111.38;5033667;28;20272;-79
2022/02/16 01:51:54;;;;;;;1.03;0.90;;;;;;;5.85;92.89;99116.72;5033702;28;20564;-80
2022/02/16 01:54:21;;;;;;;1.77;1.30;;;;;;;5.83;92.61;99108.13;5033974;28;20210;-79
2022/02/16 01:56:49;;;;;;;1.50;1.10;;;;;;;5.84;92.50;99107.22;5033852;28;20202;-81
2022/02/16 01:59:18;;;;;;;1.17;1.00;;;;;;;5.87;91.89;99096.81;5032809;28;20307;-80
2022/02/16 02:01:45;;;;;;;3.70;1.10;;;;;;;5.86;91.98;99095.09;5033498;28;20218;-79
2022/02/16 02:04:11;;;;;;;2.50;0.97;;;;;;;5.90;91.87;99101.91;5033796;28;20652;-79
2022/02/16 02:06:38;;;;;;;1.70;1.17;;;;;;;5.86;92.07;99121.00;5033877;28;20255;-81
2022/02/16 02:09:05;;;;;;;1.63;1.10;;;;;;;5.87;91.92;99093.38;5033242;28;20233;-79
2022/02/16 02:11:32;;;;;;;1.00;1.00;;;;;;;5.91;91.41;99101.03;5033351;28;20201;-79
2022/02/16 02:14:00;;;;;;;1.60;0.93;;;;;;;5.93;91.40;99104.44;5033178;28;20205;-79
2022/02/16 02:16:28;;;;;;;2.97;1.27;;;;;;;5.94;91.26;99108.72;5033509;28;20213;-79
2022/02/16 02:18:55;;;;;;;0.90;0.80;;;;;;;6.03;91.29;99114.66;5033603;28;20280;-79
2022/02/16 02:21:23;;;;;;;0.80;0.80;;;;;;;5.95;90.83;99115.66;5032754;28;20209;-79
2022/02/16 02:23:50;;;;;;;1.33;0.90;;;;;;;5.97;90.57;99110.44;5032941;28;20274;-80
2022/02/16 02:26:17;;;;;;;1.40;1.00;;;;;;;5.95;91.37;99110.47;5033082;28;20232;-79
2022/02/16 02:28:45;;;;;;;0.70;0.70;;;;;;;6.03;90.34;99119.84;5033428;28;20233;-80
2022/02/16 02:31:11;;;;;;;1.13;1.00;;;;;;;6.05;90.92;99102.50;5032990;28;20213;-79
2022/02/16 02:33:38;;;;;;;1.80;0.90;;;;;;;5.96;90.21;99113.91;5033329;28;20204;-79
2022/02/16 02:36:05;;;;;;;1.50;0.80;;;;;;;6.06;91.22;99106.78;5033314;28;20264;-80
2022/02/16 02:38:33;;;;;;;1.10;1.00;;;;;;;6.10;90.89;99109.28;5033338;28;20237;-80
2022/02/16 02:41:01;;;;;;;0.93;0.90;;;;;;;6.11;90.16;99095.44;5033344;28;20198;-80
2022/02/16 02:43:29;;;;;;;0.80;0.80;;;;;;;6.19;91.03;99092.69;5034254;28;20233;-79
2022/02/16 02:45:56;;;;;;;0.73;0.73;;;;;;;6.08;90.08;99095.50;5033717;28;20209;-78
2022/02/16 02:48:23;;;;;;;0.80;0.80;;;;;;;6.06;90.74;99084.31;5033370;28;20225;-80
2022/02/16 02:50:51;;;;;;;1.17;1.03;;;;;;;6.08;90.43;99084.28;5032729;28;20206;-78
2022/02/16 02:53:17;;;;;;;0.97;0.80;;;;;;;6.05;90.95;99074.88;5033498;28;20205;-80
2022/02/16 02:55:45;;;;;;;0.90;0.77;;;;;;;6.02;91.32;99079.25;5033786;28;20210;-79
2022/02/16 02:58:12;;;;;;;0.90;0.90;;;;;;;6.02;91.05;99074.91;5033419;28;20226;-79
2022/02/16 03:00:39;;;;;;;0.73;0.73;;;;;;;6.03;90.51;99034.34;5032862;28;20746;-80
2022/02/16 03:03:05;;;;;;;1.33;0.90;;;;;;;6.05;91.07;99055.88;5033639;28;20205;-79
2022/02/16 03:05:31;;;;;;;1.30;0.90;;;;;;;6.04;91.00;99061.94;5033189;28;20280;-80
2022/02/16 03:07:58;;;;;;;1.10;1.00;;;;;;;6.05;91.42;99050.72;5032945;28;20272;-80
2022/02/16 03:10:25;;;;;;;1.10;1.10;;;;;;;6.10;91.10;99060.06;5033159;28;20252;-79
2022/02/16 03:12:52;;;;;;;0.80;0.80;;;;;;;6.08;90.31;99069.59;5035984;28;20578;-78
2022/02/16 03:15:19;;;;;;;0.80;0.80;;;;;;;6.11;90.42;99066.09;5037227;28;20209;-80
2022/02/16 03:17:45;;;;;;;0.80;0.80;;;;;;;6.19;90.23;99061.59;5036689;28;20230;-81
2022/02/16 03:20:12;;;;;;;1.07;0.93;;;;;;;6.16;90.03;99088.44;5036898;28;20241;-77
2022/02/16 03:22:39;;;;;;;1.03;0.93;;;;;;;6.22;90.28;99073.63;5036685;28;20217;-79
2022/02/16 03:25:06;;;;;;;1.83;0.73;;;;;;;6.27;90.01;99056.25;5037172;28;20233;-80
2022/02/16 03:27:33;;;;;;;0.80;0.80;;;;;;;6.29;89.25;99072.59;5037120;28;20209;-79
2022/02/16 03:30:01;;;;;;;1.30;0.80;;;;;;;6.30;89.41;99067.38;5036690;28;20676;-80
2022/02/16 03:32:27;;;;;;;0.80;0.80;;;;;;;6.22;88.94;99089.16;5036451;28;20276;-78
2022/02/16 03:34:54;;;;;;;1.00;0.90;;;;;;;6.30;89.63;99072.56;5036650;28;20202;-79
2022/02/16 03:37:20;;;;;;;0.80;0.80;;;;;;;6.32;89.86;99069.91;5036913;28;20458;-81
2022/02/16 03:39:47;;;;;;;1.00;0.90;;;;;;;6.23;89.56;99081.38;5036158;28;20202;-79
2022/02/16 03:42:14;;;;;;;0.90;0.90;;;;;;;6.29;89.56;99077.78;5036740;28;20259;-79
2022/02/16 03:44:40;;;;;;;0.70;0.70;;;;;;;6.33;89.67;99079.41;5036958;28;20244;-79
2022/02/16 03:47:08;;;;;;;0.90;0.90;;;;;;;6.38;88.48;99102.63;5037322;28;20270;-80
2022/02/16 03:49:34;;;;;;;1.17;0.90;;;;;;;6.34;87.76;99107.00;5036173;28;20708;-79
2022/02/16 03:52:00;;;;;;;1.10;0.83;;;;;;;6.38;88.16;99100.03;5036636;28;20260;-80
2022/02/16 03:54:27;;;;;;;0.90;0.80;;;;;;;6.36;88.38;99094.88;5036267;28;20685;-80
2022/02/16 03:56:53;;;;;;;1.03;0.83;;;;;;;6.38;88.20;99085.31;5036382;28;20712;-80
2022/02/16 03:59:20;;;;;;;1.33;1.00;;;;;;;6.42;88.44;99068.84;5035661;28;20735;-79
2022/02/16 04:01:46;;;;;;;0.90;0.90;;;;;;;6.39;88.44;99083.59;5035861;28;20276;-81
2022/02/16 04:04:14;;;;;;;0.70;0.70;;;;;;;6.41;88.29;99087.84;5035677;28;20226;-80
2022/02/16 04:06:40;;;;;;;0.80;0.80;;;;;;;6.42;88.76;99079.22;5036534;28;20210;-79
2022/02/16 04:09:07;;;;;;;0.80;0.80;;;;;;;6.43;88.34;99082.63;5036147;28;20346;-79
2022/02/16 04:11:33;;;;;;;1.00;0.70;;;;;;;6.34;87.85;99083.69;5035471;28;20209;-79
2022/02/16 04:14:00;;;;;;;0.80;0.80;;;;;;;6.40;87.68;99083.53;5035996;28;20202;-80
2022/02/16 04:16:26;;;;;;;0.93;0.80;;;;;;;6.34;87.78;99079.38;5035497;28;20239;-79
2022/02/16 04:18:52;;;;;;;0.63;0.63;;;;;;;6.40;88.41;99074.94;5035386;28;20719;-80
2022/02/16 04:21:20;;;;;;;0.73;0.73;;;;;;;6.36;88.10;99077.59;5035772;28;20206;-81
2022/02/16 04:23:46;;;;;;;1.10;1.00;;;;;;;6.35;88.72;99049.13;5035614;28;20286;-80
2022/02/16 04:26:13;;;;;;;1.17;0.93;;;;;;;6.35;89.08;99034.41;5036179;28;20688;-79
2022/02/16 04:28:39;;;;;;;0.70;0.70;;;;;;;6.42;88.57;99034.28;5035244;28;20222;-76
2022/02/16 04:31:06;;;;;;;1.60;0.60;;;;;;;6.44;88.26;99048.91;5035445;28;20228;-81
2022/02/16 04:33:32;;;;;;;0.70;0.70;;;;;;;6.45;87.90;99047.16;5036197;28;20255;-78
2022/02/16 04:35:58;;;;;;;0.80;0.80;;;;;;;6.47;87.98;99047.97;5036896;28;20264;-79
2022/02/16 04:38:26;;;;;;;1.10;1.00;;;;;;;6.46;88.35;99038.47;5035238;28;20229;-80
2022/02/16 04:40:53;;;;;;;0.83;0.80;;;;;;;6.48;88.42;99041.88;5035831;28;20668;-79
2022/02/16 04:43:19;;;;;;;0.70;0.70;;;;;;;6.45;88.34;99034.19;5036045;28;20209;-79
2022/02/16 04:45:45;;;;;;;0.70;0.70;;;;;;;6.44;88.79;99033.38;5035604;28;20248;-80
2022/02/16 04:48:12;;;;;;;0.70;0.70;;;;;;;6.48;88.94;99028.94;5035919;28;20708;-79
2022/02/16 04:50:38;;;;;;;0.90;0.90;;;;;;;6.45;88.27;99031.63;5035192;28;20206;-81
2022/02/16 04:53:04;;;;;;;1.53;0.73;;;;;;;6.48;88.11;99022.03;5036223;28;20629;-81
2022/02/16 04:55:32;;;;;;;0.77;0.77;;;;;;;6.49;89.29;99010.75;5035938;28;20272;-79
2022/02/16 04:57:58;;;;;;;0.63;0.63;;;;;;;6.46;89.50;98995.28;5036221;28;20229;-81
2022/02/16 05:00:25;;;;;;;1.33;0.90;;;;;;;6.52;88.87;98999.44;5035369;28;20220;-79
2022/02/16 05:02:52;;;;;;;0.73;0.73;;;;;;;6.49;88.81;98999.53;5036379;28;20206;-81
2022/02/16 05:05:18;;;;;;;0.70;0.70;;;;;;;6.42;89.16;98977.25;5036860;28;20256;-80
2022/02/16 05:07:44;;;;;;;0.80;0.80;;;;;;;6.41;89.04;98981.59;5037926;28;20226;-79
2022/02/16 05:10:11;;;;;;;0.73;0.60;;;;;;;6.43;89.79;98964.25;5039718;28;20228;-79
2022/02/16 05:12:40;;;;;;;0.60;0.60;;;;;;;6.42;89.50;98967.75;5044778;28;20213;-81
2022/02/16 05:15:08;;;;;;;0.77;0.77;;;;;;;6.40;89.88;98950.53;5052737;28;20224;-80
2022/02/16 05:17:34;;;;;;;0.93;0.80;;;;;;;6.39;90.24;98941.91;5051943;28;20260;-79
2022/02/16 05:20:00;;;;;;;0.80;0.80;;;;;;;6.44;89.71;98928.81;5049904;28;20213;-79
2022/02/16 05:22:27;;;;;;;0.90;0.80;;;;;;;6.35;89.66;98930.75;5039438;28;20208;-79
2022/02/16 05:24:53;;;;;;;0.90;0.90;;;;;;;6.41;90.37;98915.94;5040023;28;20226;-79
2022/02/16 05:27:19;;;;;;;1.00;0.90;;;;;;;6.49;90.65;98914.00;5039588;28;20214;-80
2022/02/16 05:29:47;;;;;;;0.73;0.73;;;;;;;6.47;90.59;98905.41;5039637;28;20206;-80
2022/02/16 05:32:13;;;;;;;0.90;0.90;;;;;;;6.47;90.75;98898.47;5039639;28;20207;-78
2022/02/16 05:34:40;;;;;;;1.00;1.00;;;;;;;6.51;90.23;98881.97;5038160;28;20628;-81
2022/02/16 05:37:06;;;;;;;0.90;0.90;;;;;;;6.48;90.76;98886.38;5039321;28;20252;-80
2022/02/16 05:39:33;;;;;;;0.70;0.70;;;;;;;6.42;90.17;98870.97;5063947;23;20279;-78
2022/02/16 05:41:59;;;;;;;1.27;0.80;;;;;;;6.52;89.93;98880.19;5055711;28;20232;-79
2022/02/16 05:44:25;;;;;;;2.43;1.10;;;;;;;6.49;89.97;98886.34;5055735;28;20236;-78
2022/02/16 05:46:53;;;;;;;0.93;0.70;;;;;;;6.51;89.99;98887.13;5056475;28;20212;-78
2022/02/16 05:49:20;;;;;;;0.90;0.90;;;;;;;6.45;89.67;98884.72;5056252;28;20225;-79
2022/02/16 05:51:46;;;;;;;0.80;0.80;;;;;;;6.45;89.90;98871.75;5056306;28;20206;-78
2022/02/16 05:54:12;;;;;;;1.00;0.90;;;;;;;6.51;90.20;98870.75;5056552;28;20652;-81
2022/02/16 05:56:39;;;;;;;0.80;0.80;;;;;;;6.53;89.69;98869.81;5056256;28;20232;-80
2022/02/16 05:59:06;;;;;;;0.87;0.87;;;;;;;6.51;88.95;98881.13;5056510;28;20232;-80
2022/02/16 06:01:33;;;;;;;0.73;0.73;;;;;;;6.54;89.78;98868.91;5055888;28;21034;-78
2022/02/16 06:04:00;;;;;;;0.70;0.70;;;;;;;6.59;89.59;98870.53;5055805;28;20201;-82
2022/02/16 06:06:27;;;;;;;0.70;0.70;;;;;;;6.63;89.45;98861.78;5055893;28;20252;-80
2022/02/16 06:08:53;;;;;;;0.80;0.80;;;;;;;6.54;89.16;98857.69;5037474;28;20231;-78
2022/02/16 06:11:19;;;;;;;0.70;0.70;;;;;;;6.63;89.92;98851.41;5034936;28;20264;-78
2022/02/16 06:13:46;;;;;;;0.97;0.90;;;;;;;6.69;89.62;98848.63;5036119;28;20202;-80
2022/02/16 06:16:12;;;;;;;1.97;0.80;;;;;;;6.73;90.11;98853.69;5036022;28;20206;-79
2022/02/16 06:18:39;;;;;;;0.70;0.70;;;;;;;6.73;89.82;98850.25;5036779;28;20229;-79
2022/02/16 06:21:06;;;;;;;0.70;0.70;;;;;;;6.72;88.96;98859.78;5035987;28;20206;-80
2022/02/16 06:23:35;;;;;;;0.70;0.70;;;;;;;6.74;89.05;98852.78;5035464;28;20206;-79
2022/02/16 06:26:01;;;;;;;0.80;0.80;;;;;;;6.73;89.47;98860.63;5035731;28;20287;-78
2022/02/16 06:28:27;;;;;;;2.10;0.80;;;;;;;6.73;89.72;98840.72;5035514;28;20229;-78
2022/02/16 06:30:55;;;;;;;0.80;0.77;;;;;;;6.73;89.65;98832.94;5035147;28;20210;-80
2022/02/16 06:33:21;;;;;;;0.80;0.80;;;;;;;6.74;89.49;98818.25;5035335;28;20288;-78
2022/02/16 06:35:48;;;;;;;0.60;0.60;;;;;;;6.76;89.47;98839.78;5035904;28;20209;-79
2022/02/16 06:38:15;;;;;;;0.60;0.60;;;;;;;6.73;89.41;98832.09;5032880;28;21808;-79
2022/02/16 06:40:42;;;;;;;0.70;0.70;;;;;;;6.78;89.01;98837.13;5023522;28;20199;-79
2022/02/16 06:43:09;;;;;;;1.17;0.80;;;;;;;6.75;89.16;98819.94;5015777;28;20744;-78
2022/02/16 06:45:35;;;;;;;1.77;0.93;;;;;;;6.72;89.15;98818.28;5015331;28;20786;-78
2022/02/16 06:48:01;;;;;;;1.13;0.60;;;;;;;6.79;89.40;98813.75;5015693;28;20689;-79
2022/02/16 06:50:28;;;;;;;0.73;0.73;;;;;;;6.78;88.81;98816.38;5015334;28;20207;-78
2022/02/16 06:52:54;;;;;;;1.10;0.80;;;;;;;6.81;89.12;98811.97;5015980;28;20269;-79
2022/02/16 06:55:22;;;;;;;0.70;0.70;;;;;;;6.77;88.45;98836.28;5019887;28;20212;-80
2022/02/16 06:57:48;;;;;;;0.60;0.60;;;;;;;6.85;88.16;98829.13;5022093;28;20284;-77
2022/02/16 07:00:16;;;;;;;1.30;0.87;;;;;;;6.85;88.54;98830.88;5020763;28;20227;-77
2022/02/16 07:02:44;;;;;;;0.80;0.80;;;;;;;6.90;88.75;98829.00;5025173;28;20271;-77
2022/02/16 07:05:10;;;;;;;1.37;0.80;;;;;;;6.85;87.90;98844.69;5025920;28;20677;-77
2022/02/16 07:07:36;;;;;;;0.70;0.70;;;;;;;6.90;87.40;98844.56;5022719;28;20203;-76
2022/02/16 07:10:03;;;;;;;0.70;0.70;;;;;;;6.95;88.34;98816.75;5024620;28;20283;-76
2022/02/16 07:12:32;;;;;;;1.53;0.87;;;;;;;6.97;88.62;98809.75;5023322;28;20234;-78
2022/02/16 07:14:58;;;;;;;0.90;0.60;;;;;;;6.99;88.40;98791.56;5021724;28;20199;-76
2022/02/16 07:17:25;;;;;;;0.70;0.70;;;;;;;7.03;88.42;98777.59;5023579;28;20263;-77
2022/02/16 07:19:51;;;;;;;0.90;0.70;;;;;;;7.01;88.87;98776.78;5023112;28;20757;-76
2022/02/16 07:22:18;;;;;;;1.00;0.90;;;;;;;7.01;88.33;98781.97;5023841;28;20198;-78
2022/02/16 07:24:44;;;;;;;0.90;0.67;;;;;;;7.08;87.63;98799.91;5022585;28;20881;-77
2022/02/16 07:27:12;;;;;;;1.07;0.63;;;;;;;7.13;87.59;98784.19;5022962;28;20198;-78
2022/02/16 07:29:40;;;;;;;0.60;0.60;;;;;;;7.15;86.84;98801.44;5021917;28;20222;-77
2022/02/16 07:32:07;;;;;;;0.50;0.50;;;;;;;7.25;86.92;98791.56;5022865;28;20229;-77
2022/02/16 07:34:34;;;;;;;1.40;0.63;;;;;;;7.34;87.23;98800.81;5023809;28;20275;-78
2022/02/16 07:37:03;;;;;;;0.80;0.80;;;;;;;7.30;86.87;98801.81;5021799;28;20202;-77
2022/02/16 07:39:29;;;;;;;0.73;0.73;;;;;;;7.26;86.23;98801.06;5022638;28;20320;-77
2022/02/16 07:41:56;;;;;;;0.70;0.70;;;;;;;7.23;86.48;98805.50;5024279;28;20201;-77
2022/02/16 07:44:23;;;;;;;0.50;0.50;;;;;;;7.22;87.75;98778.72;5022701;28;20225;-78
2022/02/16 07:46:51;;;;;;;1.00;0.70;;;;;;;7.18;88.20;98758.09;5022199;28;20287;-77
2022/02/16 07:49:17;;;;;;;0.60;0.60;;;;;;;7.18;88.13;98730.41;5023982;28;20228;-77
2022/02/16 07:51:43;;;;;;;0.83;0.83;;;;;;;7.20;88.95;98727.78;5023835;28;20205;-77
2022/02/16 07:54:10;;;;;;;0.53;0.50;;;;;;;7.24;88.19;98716.38;5023389;28;20261;-77
2022/02/16 07:56:36;;;;;;;1.47;0.77;;;;;;;7.12;88.81;98717.63;5024021;28;20206;-77
2022/02/16 07:59:02;;;;;;;0.80;0.70;;;;;;;7.20;89.16;98701.81;5019126;28;20288;-77
2022/02/16 08:01:29;;;;;;;0.70;0.70;;;;;;;7.20;89.46;98671.53;5016137;28;20615;-77
2022/02/16 08:04:15;;;;;;;0.50;0.43;;;;;;;7.21;89.87;98670.59;5016643;28;20211;-78
2022/02/16 08:06:42;;;;;;;0.70;0.70;;;;;;;7.11;89.41;98657.09;5016488;28;20234;-78
2022/02/16 08:09:10;;;;;;;2.73;1.03;;;;;;;7.25;89.78;98651.44;5015985;28;20236;-76
2022/02/16 08:11:36;;;;;;;0.60;0.60;;;;;;;7.16;89.90;98649.19;5016106;28;20220;-77
2022/02/16 08:14:03;;;;;;;0.97;0.60;;;;;;;7.13;89.38;98659.63;5016422;28;20206;-78
2022/02/16 08:16:29;;;;;;;0.70;0.70;;;;;;;7.18;90.51;98637.00;5016287;28;20206;-78
2022/02/16 08:18:57;;;;;;;0.70;0.70;;;;;;;7.16;91.32;98616.28;5016699;28;20233;-78
2022/02/16 08:21:24;;;;;;;0.70;0.60;;;;;;;7.25;90.72;98598.69;5017165;28;20619;-77
2022/02/16 08:23:50;;;;;;;1.37;0.70;;;;;;;7.28;91.25;98583.03;5018845;28;20356;-78
2022/02/16 08:26:16;;;;;;;0.50;0.50;;;;;;;7.26;91.66;98566.66;5023619;28;20222;-78
2022/02/16 08:28:43;;;;;;;0.70;0.60;;;;;;;7.15;91.97;98534.19;5026851;28;20222;-77
2022/02/16 08:31:10;;;;;;;0.83;0.70;;;;;;;7.18;93.22;98503.81;5034452;28;20232;-77
2022/02/16 08:33:36;;;;;;;0.50;0.50;;;;;;;7.14;93.12;98495.31;5034807;28;20207;-78
2022/02/16 08:36:04;;;;;;;0.50;0.50;;;;;;;7.19;93.16;98484.75;5018415;28;20208;-77
2022/02/16 08:38:31;;;;;;;0.97;0.90;;;;;;;7.31;93.08;98476.50;5015225;28;20315;-77
2022/02/16 08:40:57;;;;;;;1.60;0.70;;;;;;;7.41;93.05;98474.41;5015446;28;20195;-77
2022/02/16 08:43:24;;;;;;;0.93;0.93;;;;;;;7.43;93.16;98482.97;5015545;28;20207;-77
2022/02/16 08:45:51;;;;;;;0.50;0.50;;;;;;;7.38;91.87;98503.94;5017389;28;20238;-77
2022/02/16 08:48:17;;;;;;;0.50;0.50;;;;;;;7.47;93.18;98480.22;5016670;28;20203;-77
2022/02/16 08:50:43;;;;;;;0.60;0.60;;;;;;;7.51;92.45;98504.31;5015248;28;20272;-77
2022/02/16 08:53:11;;;;;;;0.50;0.50;;;;;;;7.62;92.53;98481.38;5015833;28;20222;-77
2022/02/16 08:55:37;;;;;;;0.37;0.37;;;;;;;7.71;91.30;98491.44;5018169;28;20624;-78
2022/02/16 08:58:03;;;;;;;0.47;0.47;;;;;;;7.74;90.67;98511.22;5022995;28;20677;-80
2022/02/16 09:00:30;;;;;;;0.50;0.50;;;;;;;7.81;90.25;98525.69;5038357;28;20241;-78
2022/02/16 09:02:56;;;;;;;0.50;0.50;;;;;;;7.83;89.33;98559.38;5027474;28;20260;-77
2022/02/16 09:05:22;;;;;;;0.57;0.57;;;;;;;7.86;89.83;98543.69;5024246;28;20237;-78
2022/02/16 09:07:49;;;;;;;0.63;0.60;;;;;;;7.80;90.67;98511.00;5025688;28;20206;-77
2022/02/16 09:10:17;;;;;;;0.57;0.57;;;;;;;7.86;91.39;98487.38;5024239;28;20318;-77
2022/02/16 09:12:43;;;;;;;0.50;0.50;;;;;;;7.91;92.25;98461.22;5024071;28;20210;-78
2022/02/16 09:15:09;;;;;;;0.40;0.40;;;;;;;7.85;91.88;98470.09;5024672;28;20677;-77
2022/02/16 09:17:36;;;;;;;2.30;0.50;;;;;;;7.71;92.32;98459.41;5025641;28;20582;-78
2022/02/16 09:20:03;;;;;;;0.50;0.50;;;;;;;7.71;92.56;98439.50;5023000;28;20226;-78
2022/02/16 09:22:30;;;;;;;0.80;0.57;;;;;;;7.60;93.53;98433.03;5025687;28;20201;-77
2022/02/16 09:24:56;;;;;;;1.20;0.50;;;;;;;7.58;93.70;98416.66;5025201;28;20202;-78
2022/02/16 09:27:25;;;;;;;1.40;0.60;;;;;;;7.53;95.01;98381.34;5024597;28;20234;-79
2022/02/16 09:29:51;;;;;;;0.60;0.60;;;;;;;7.57;95.58;98353.50;5027809;28;20225;-80
2022/02/16 09:32:18;;;;;;;0.60;0.60;;;;;;;7.52;95.45;98337.25;5033502;28;20206;-78
2022/02/16 09:34:45;;;;;;;0.70;0.57;;;;;;;7.60;96.09;98322.22;5034193;28;20340;-78
2022/02/16 09:37:12;;;;;;;0.40;0.37;;;;;;;7.66;96.78;98313.34;5033128;28;20202;-79
2022/02/16 09:39:39;;;;;;;0.63;0.63;;;;;;;7.70;97.18;98294.13;5024318;28;20596;-78
2022/02/16 09:42:06;;;;;;;0.60;0.50;;;;;;;7.75;97.11;98258.44;5015610;28;20731;-79
2022/02/16 09:44:44;;;;;;;0.57;0.57;;;;;;;7.72;96.32;98258.53;5014530;28;20199;-79
2022/02/16 09:47:11;;;;;;;0.73;0.73;;;;;;;7.84;96.80;98255.41;5014433;28;20231;-79
2022/02/16 09:49:38;;;;;;;0.60;0.60;;;;;;;7.99;97.03;98227.09;5013392;28;20227;-78
2022/02/16 09:52:06;;;;;;;1.20;0.80;;;;;;;8.00;97.19;98223.59;5014388;28;20206;-79
2022/02/16 09:54:33;;;;;;;0.50;0.50;;;;;;;7.92;96.07;98265.47;5020243;28;20209;-78
2022/02/16 09:56:59;;;;;;;0.40;0.40;;;;;;;8.00;95.71;98275.53;5034219;28;20202;-78
2022/02/16 09:59:26;;;;;;;0.83;0.47;;;;;;;8.09;96.45;98247.41;5035299;28;20333;-78
2022/02/16 10:01:57;;;;;;;0.40;0.40;;;;;;;8.16;95.56;98245.38;5034700;28;20210;-79
2022/02/16 10:04:24;;;;;;;0.67;0.50;;;;;;;8.18;94.67;98312.88;5034151;28;20217;-79
2022/02/16 10:06:50;;;;;;;0.77;0.40;;;;;;;8.26;94.39;98313.38;5033406;28;20222;-78
2022/02/16 10:09:25;;;;;;;0.80;0.30;;;;;;;8.23;94.26;98322.16;5025320;28;20495;-78
2022/02/16 10:11:54;;;;;;;0.30;0.30;;;;;;;8.19;94.27;98320.63;5017448;28;20209;-78
2022/02/16 10:14:22;;;;;;;0.30;0.30;;;;;;;8.08;94.58;98299.44;5012676;28;20650;-77
2022/02/16 10:16:49;;;;;;;0.40;0.40;;;;;;;8.11;94.84;98320.09;5013644;28;20214;-79
2022/02/16 10:19:17;;;;;;;0.30;0.30;;;;;;;8.12;95.03;98317.41;5015416;28;20230;-77
2022/02/16 10:22:01;;;;;;;0.30;0.30;;;;;;;8.18;95.49;98305.09;5013809;28;20257;-79
2022/02/16 10:24:27;;;;;;;0.27;0.27;;;;;;;8.22;96.06;98289.28;5012502;28;20211;-78
2022/02/16 10:26:57;;;;;;;0.63;0.40;;;;;;;8.24;96.45;98294.41;5012039;28;20222;-78
2022/02/16 10:29:25;;;;;;;0.30;0.30;;;;;;;8.28;96.77;98280.38;5012041;28;20661;-78
2022/02/16 10:31:51;;;;;;;0.43;0.33;;;;;;;8.20;97.25;98275.50;5012363;28;20206;-78
2022/02/16 10:34:19;;;;;;;0.27;0.27;;;;;;;8.27;98.01;98256.16;5012316;28;20207;-77
2022/02/16 10:36:46;;;;;;;0.20;0.20;;;;;;;8.27;97.83;98229.31;5013772;28;20206;-78
2022/02/16 10:39:16;;;;;;;0.30;0.30;;;;;;;8.32;97.99;98243.78;5022632;28;20720;-79
2022/02/16 10:41:44;;;;;;;0.20;0.20;;;;;;;8.40;98.65;98220.03;5018562;28;20253;-78
2022/02/16 10:44:22;;;;;;;0.37;0.20;;;;;;;8.46;98.54;98229.34;5013593;28;20207;-80
2022/02/16 10:47:00;;;;;;;0.37;0.30;;;;;;;8.41;98.22;98226.09;5014727;28;20229;-77
2022/02/16 10:49:28;;;;;;;0.30;0.30;;;;;;;8.41;98.26;98229.56;5014017;28;20607;-78
2022/02/16 10:52:06;;;;;;;0.30;0.30;;;;;;;8.55;98.37;98219.34;5012882;28;20199;-79
2022/02/16 10:54:33;;;;;;;0.20;0.20;;;;;;;8.60;98.25;98226.09;5012962;28;20735;-78
2022/02/16 10:57:00;;;;;;;0.20;0.20;;;;;;;8.48;97.55;98233.56;5013493;28;20203;-78
2022/02/16 10:59:27;;;;;;;0.73;0.20;;;;;;;8.61;97.21;98266.81;5013339;28;20239;-79
2022/02/16 11:01:54;;;;;;;0.30;0.20;;;;;;;8.67;97.19;98227.50;5013699;28;20632;-78
2022/02/16 11:04:22;;;;;;;0.10;0.10;;;;;;;8.76;97.38;98240.09;5013616;28;20281;-78
2022/02/16 11:06:50;;;;;;;0.40;0.30;;;;;;;8.86;97.08;98214.47;5012871;28;20223;-79
2022/02/16 11:09:18;;;;;;;0.20;0.20;;;;;;;8.87;96.09;98224.78;5019271;28;20226;-78
2022/02/16 11:11:45;;;;;;;0.20;0.20;;;;;;;8.97;95.37;98282.44;5020953;28;20218;-77
2022/02/16 11:14:12;;;;;;;0.20;0.20;;;;;;;9.07;95.49;98273.28;5012374;28;20205;-77
2022/02/16 11:16:39;;;;;;;0.47;0.30;;;;;;;9.04;94.95;98278.66;5011898;28;20206;-77
2022/02/16 11:19:22;;;;;;;0.20;0.20;;;;;;;9.09;95.37;98266.25;5012157;28;20639;-77
2022/02/16 11:22:01;;;;;;;0.27;0.27;;;;;;;9.11;94.76;98272.22;5012607;28;20207;-77
2022/02/16 11:24:29;;;;;;;0.97;0.30;;;;;;;9.17;94.72;98265.03;5011950;28;20748;-77
2022/02/16 11:26:55;;;;;;;0.20;0.20;;;;;;;9.23;94.03;98280.34;5012202;28;20765;-77
2022/02/16 11:29:40;;;;;;;0.20;0.20;;;;;;;9.18;nan;98295.34;5011914;28;20603;-77
2022/02/16 11:32:22;;;;;;;1.30;0.23;;;;;;;9.31;93.91;98296.44;5011762;28;20588;-77
2022/02/16 11:35:17;;;;;;;0.30;0.30;;;;;;;9.41;93.23;98297.69;5015599;28;20211;-77
2022/02/16 11:37:45;;;;;;;0.40;0.30;;;;;;;9.47;92.76;98319.97;5015488;28;20242;-77
2022/02/16 11:40:14;;;;;;;0.20;0.20;;;;;;;9.50;92.76;98306.81;5024863;28;20236;-77
2022/02/16 11:42:56;;;;;;;0.30;0.30;;;;;;;9.51;92.71;98311.97;5047537;23;20232;-80